Bordersville, Texas
Current Conditions -  °F | °C
As of 9:53 AM on Sunday 25 Jan 2015 (Local Time) from KIAH Reporting Station
Few Clouds Few Clouds  
Wind Chill: 56°   Ceiling: Unl
Heat Index: 56°   Visibility: 10mi
Dew Point: 40°   Wind: 9mph
Humidity: 55%   Direction: 270°W
Pressure: 30.04"   Gusts: NA
Location:  30.0245°N, 95.2914°W
Report Text: KIAH 251553Z 27008KT 10SM FEW250 13/04 A3004 RMK AO2 SLP172 T01330044
Loading
Personal Weather Stations






























Interactive Weather Map New forecast layout! Learn more

10-Day Weather Forecast

Advertisements
Track Severe Weather on mobile